createdAt,value
2023-01-13T00:01:23.198Z,7.52
2023-01-13T00:04:04.660Z,8.70
2023-01-13T00:06:44.276Z,8.54
2023-01-13T00:09:23.707Z,7.31
2023-01-13T00:14:41.970Z,8.00
2023-01-13T00:21:18.196Z,7.44
2023-01-13T00:24:03.554Z,8.36
2023-01-13T00:26:45.691Z,6.96
2023-01-13T00:29:18.657Z,8.35
2023-01-13T00:35:09.736Z,7.03
2023-01-13T00:37:49.024Z,8.09
2023-01-13T00:40:34.275Z,7.97
2023-01-13T00:46:10.466Z,8.23
2023-01-13T00:48:39.113Z,7.52
2023-01-13T00:51:11.653Z,6.86
2023-01-13T00:53:57.119Z,7.85
2023-01-13T00:56:50.801Z,8.16
2023-01-13T00:59:36.497Z,7.95
2023-01-13T01:02:07.951Z,7.00
2023-01-13T01:04:40.668Z,7.59
2023-01-13T01:07:13.883Z,8.10
2023-01-13T01:09:53.387Z,8.09
2023-01-13T01:12:25.455Z,7.56
2023-01-13T01:15:03.395Z,7.64
2023-01-13T01:17:37.665Z,8.04
2023-01-13T01:20:08.185Z,7.65
2023-01-13T01:22:42.508Z,7.43
2023-01-13T01:25:17.742Z,7.06
2023-01-13T01:27:46.712Z,6.81
2023-01-13T01:30:21.050Z,8.00
2023-01-13T01:32:48.046Z,7.26
2023-01-13T01:35:17.304Z,6.87
2023-01-13T01:37:45.598Z,7.47
2023-01-13T01:40:15.018Z,7.44
2023-01-13T01:42:58.465Z,7.44
2023-01-13T01:45:31.702Z,7.96
2023-01-13T01:48:16.514Z,7.99
2023-01-13T01:51:00.690Z,7.91
2023-01-13T01:53:35.933Z,7.81
2023-01-13T01:56:16.429Z,7.98
2023-01-13T02:02:26.506Z,7.49
2023-01-13T02:05:05.634Z,7.76
2023-01-13T02:10:31.943Z,6.87
2023-01-13T02:13:13.067Z,8.05
2023-01-13T02:16:04.870Z,6.65
2023-01-13T02:18:58.129Z,6.90
2023-01-13T02:21:44.049Z,6.84
2023-01-13T02:24:58.176Z,6.90
2023-01-13T02:27:50.722Z,8.05
2023-01-13T02:30:30.052Z,7.88
2023-01-13T02:33:17.734Z,7.37
2023-01-13T02:36:04.676Z,7.47
2023-01-13T02:38:38.613Z,8.15
2023-01-13T02:41:14.207Z,7.89
2023-01-13T02:43:46.113Z,7.90
2023-01-13T02:46:25.148Z,8.23
2023-01-13T02:48:57.731Z,7.63
2023-01-13T02:51:30.433Z,7.05
2023-01-13T02:54:07.321Z,7.81
2023-01-13T02:56:42.421Z,8.06
2023-01-13T02:59:12.679Z,7.24
2023-01-13T03:02:08.408Z,7.35
2023-01-13T03:04:53.563Z,7.64
2023-01-13T03:08:10.255Z,7.11
2023-01-13T03:11:05.538Z,7.12
2023-01-13T03:14:18.806Z,8.25
2023-01-13T03:17:07.871Z,7.81
2023-01-13T03:19:48.199Z,8.33
2023-01-13T03:22:27.081Z,7.22
2023-01-13T03:25:02.824Z,8.35
2023-01-13T03:27:44.641Z,8.10
2023-01-13T03:30:38.899Z,8.32
2023-01-13T03:33:16.842Z,8.40
2023-01-13T03:35:52.699Z,7.21
2023-01-13T03:38:28.595Z,7.18
2023-01-13T03:41:06.247Z,7.50
2023-01-13T03:43:41.353Z,7.31
2023-01-13T03:46:21.897Z,8.41
2023-01-13T03:49:10.340Z,7.72
2023-01-13T03:51:44.961Z,7.09
2023-01-13T03:54:14.436Z,7.86
2023-01-13T03:56:47.483Z,7.07
2023-01-13T03:59:19.874Z,7.73
2023-01-13T04:02:07.246Z,7.13
2023-01-13T04:04:43.957Z,7.98
2023-01-13T04:07:22.217Z,7.91
2023-01-13T04:09:55.776Z,7.60
2023-01-13T04:15:56.813Z,7.94
2023-01-13T04:18:31.336Z,7.07
2023-01-13T04:21:28.411Z,6.93
2023-01-13T04:24:02.350Z,8.23
2023-01-13T04:26:35.136Z,8.27
2023-01-13T04:29:10.060Z,7.14
2023-01-13T04:32:00.514Z,8.20
2023-01-13T04:34:32.545Z,8.09
2023-01-13T04:37:02.434Z,7.82
2023-01-13T04:39:39.448Z,8.03
2023-01-13T04:42:13.953Z,8.33
2023-01-13T04:44:51.991Z,7.91
2023-01-13T04:47:21.743Z,7.86
2023-01-13T04:50:14.905Z,8.16
2023-01-13T04:52:56.563Z,7.89
2023-01-13T04:55:29.761Z,7.19
2023-01-13T04:58:10.181Z,7.90
2023-01-13T05:00:39.878Z,7.17
2023-01-13T05:03:08.389Z,8.42
2023-01-13T05:05:37.693Z,8.45
2023-01-13T05:08:06.391Z,8.14
2023-01-13T05:10:39.290Z,8.11
2023-01-13T05:13:09.565Z,7.81
2023-01-13T05:15:36.551Z,8.41
2023-01-13T05:18:04.115Z,8.44
2023-01-13T05:20:31.039Z,8.36
2023-01-13T05:22:58.126Z,8.03
2023-01-13T05:25:29.597Z,8.04
2023-01-13T05:27:58.413Z,7.23
2023-01-13T05:30:29.286Z,7.30
2023-01-13T05:32:59.139Z,8.48
2023-01-13T05:35:29.254Z,8.20
2023-01-13T05:37:56.238Z,8.52
2023-01-13T05:40:35.489Z,8.50
2023-01-13T05:43:04.061Z,7.30
2023-01-13T05:45:31.349Z,7.49
2023-01-13T05:47:58.892Z,8.32
2023-01-13T05:50:25.679Z,7.60
2023-01-13T05:53:01.025Z,7.76
2023-01-13T05:55:29.440Z,8.00
2023-01-13T05:57:59.302Z,7.27
2023-01-13T06:00:26.396Z,7.56
2023-01-13T06:02:53.263Z,7.94
2023-01-13T06:05:20.316Z,8.46
2023-01-13T06:07:47.198Z,7.40
2023-01-13T06:10:14.003Z,8.32
2023-01-13T06:12:42.809Z,8.36
2023-01-13T06:15:10.438Z,7.31
2023-01-13T06:17:37.718Z,7.50
2023-01-13T06:20:05.628Z,8.15
2023-01-13T06:22:37.864Z,8.25
2023-01-13T06:25:08.098Z,7.21
2023-01-13T06:27:34.901Z,7.91
2023-01-13T06:30:03.452Z,7.16
2023-01-13T06:32:45.214Z,8.17
2023-01-13T06:35:21.805Z,6.89
2023-01-13T06:37:51.669Z,6.90
2023-01-13T06:40:19.144Z,6.77
2023-01-13T06:42:46.319Z,7.34
2023-01-13T06:45:17.230Z,7.75
2023-01-13T06:47:44.436Z,7.63
2023-01-13T06:50:22.411Z,7.79
2023-01-13T06:52:59.536Z,7.05
2023-01-13T06:55:34.136Z,7.65
2023-01-13T06:58:07.902Z,7.31
2023-01-13T07:01:07.625Z,7.54
2023-01-13T07:03:40.993Z,6.21
2023-01-13T07:06:42.341Z,7.47
2023-01-13T07:09:09.212Z,7.01
2023-01-13T07:11:36.079Z,6.81
2023-01-13T07:14:02.974Z,7.51
2023-01-13T07:16:33.755Z,7.47
2023-01-13T07:19:00.787Z,6.55
2023-01-13T07:21:27.747Z,6.26
2023-01-13T07:23:57.628Z,7.06
2023-01-13T07:26:24.601Z,6.25
2023-01-13T07:28:51.940Z,7.28
2023-01-13T07:31:20.953Z,6.52
2023-01-13T07:33:49.411Z,6.71
2023-01-13T07:36:16.456Z,6.46
2023-01-13T07:38:43.449Z,6.96
2023-01-13T07:41:19.965Z,7.41
2023-01-13T07:43:50.603Z,6.24
2023-01-13T07:46:18.589Z,6.60
2023-01-13T07:48:47.253Z,6.90
2023-01-13T07:51:16.092Z,7.33
2023-01-13T07:53:47.376Z,7.12
2023-01-13T07:56:14.203Z,6.96
2023-01-13T07:58:41.101Z,6.25
2023-01-13T08:01:08.764Z,6.29
2023-01-13T08:03:41.494Z,7.46
2023-01-13T08:06:13.047Z,7.10
2023-01-13T08:09:16.335Z,6.45
2023-01-13T08:12:27.337Z,7.70
2023-01-13T08:15:17.061Z,6.39
2023-01-13T08:18:57.313Z,6.51
2023-01-13T08:24:21.604Z,7.76
2023-01-13T08:30:44.850Z,6.58
2023-01-13T08:33:13.338Z,7.88
2023-01-13T08:35:41.647Z,7.91
2023-01-13T08:38:11.230Z,7.74
2023-01-13T08:40:41.559Z,8.00
2023-01-13T08:50:20.991Z,8.11
2023-01-13T08:52:47.844Z,6.82
2023-01-13T08:55:15.966Z,7.97
2023-01-13T08:57:44.089Z,7.82
2023-01-13T09:00:14.895Z,7.71
2023-01-13T09:02:41.770Z,7.13
2023-01-13T09:05:10.272Z,7.51
2023-01-13T09:07:55.983Z,7.63
2023-01-13T11:33:06.692Z,7.46
2023-01-13T11:38:53.774Z,8.46
2023-01-13T11:41:33.737Z,8.61
2023-01-13T11:44:15.161Z,8.12
2023-01-13T11:46:42.199Z,8.35
2023-01-13T11:49:26.871Z,8.61
2023-01-13T11:52:03.341Z,7.38
2023-01-13T11:54:40.404Z,7.59
2023-01-13T11:57:41.549Z,8.08
2023-01-13T12:00:44.896Z,8.76
2023-01-13T12:03:23.217Z,8.82
2023-01-13T12:06:13.312Z,8.77
2023-01-13T12:09:20.982Z,8.84
2023-01-13T12:11:59.397Z,8.81
2023-01-13T12:14:38.004Z,8.59
2023-01-13T12:17:16.228Z,7.87
2023-01-13T12:19:49.206Z,8.28
2023-01-13T12:22:24.244Z,8.61
2023-01-13T12:24:55.844Z,7.88
2023-01-13T12:27:31.986Z,7.96
2023-01-13T12:30:02.035Z,8.89
2023-01-13T12:32:35.293Z,9.06
2023-01-13T12:35:20.058Z,8.85
2023-01-13T12:37:56.926Z,8.42
2023-01-13T12:40:37.540Z,8.58
2023-01-13T12:43:15.064Z,8.43
2023-01-13T12:45:42.292Z,8.45
2023-01-13T12:48:46.141Z,8.93
2023-01-13T12:51:25.565Z,8.26
2023-01-13T12:53:55.371Z,8.42
2023-01-13T12:56:42.290Z,8.01
2023-01-13T12:59:42.463Z,9.04
2023-01-13T13:02:30.682Z,8.16
2023-01-13T13:05:00.093Z,8.67
2023-01-13T13:07:41.680Z,8.26
2023-01-13T13:10:18.215Z,8.63
2023-01-13T13:12:57.954Z,9.16
2023-01-13T13:15:27.868Z,8.67
2023-01-13T13:18:03.318Z,8.21
2023-01-13T13:20:56.549Z,9.05
2023-01-13T13:23:41.338Z,8.99
2023-01-13T13:26:26.077Z,9.05
2023-01-13T13:29:16.529Z,8.99
2023-01-13T13:32:05.418Z,8.63
2023-01-13T13:34:37.783Z,8.00
2023-01-13T13:37:21.332Z,9.15
2023-01-13T13:39:48.335Z,9.04
2023-01-13T13:42:22.471Z,7.90
2023-01-13T13:44:51.050Z,9.10
2023-01-13T13:47:18.095Z,8.35
2023-01-13T13:49:48.066Z,9.11
2023-01-13T13:52:21.556Z,9.05
2023-01-13T13:54:52.021Z,8.49
2023-01-13T13:57:27.098Z,8.46
2023-01-13T13:59:55.664Z,9.10
2023-01-13T14:02:29.213Z,9.08
2023-01-13T14:05:08.284Z,8.56
2023-01-13T14:07:43.103Z,8.78
2023-01-13T14:10:16.426Z,8.33
2023-01-13T14:12:45.938Z,9.01
2023-01-13T14:15:25.862Z,8.32
2023-01-13T14:17:52.930Z,8.29
2023-01-13T14:20:19.615Z,8.61
2023-01-13T14:22:47.105Z,9.06
2023-01-13T14:25:28.441Z,8.42
2023-01-13T14:27:58.978Z,9.00
2023-01-13T14:30:28.082Z,8.74
2023-01-13T14:32:57.363Z,8.34
2023-01-13T14:35:24.290Z,8.34
2023-01-13T14:37:51.341Z,8.91
2023-01-13T14:40:40.651Z,9.13
2023-01-13T14:43:13.273Z,9.05
2023-01-13T14:45:44.806Z,9.06
2023-01-13T14:48:14.542Z,9.08
2023-01-13T14:50:47.731Z,8.16
2023-01-13T14:53:37.212Z,8.80
2023-01-13T14:56:52.918Z,8.93
2023-01-13T14:59:40.503Z,8.85
2023-01-13T15:02:46.736Z,8.87
2023-01-13T15:05:31.904Z,8.79
2023-01-13T15:08:01.595Z,8.75
2023-01-13T15:10:33.652Z,8.49
2023-01-13T15:13:03.421Z,7.93
2023-01-13T15:15:34.316Z,8.40
2023-01-13T15:18:02.279Z,8.30
2023-01-13T15:20:30.834Z,8.66
2023-01-13T15:22:57.651Z,7.76
2023-01-13T15:25:31.611Z,8.68
2023-01-13T15:27:58.666Z,8.75
2023-01-13T15:30:27.739Z,8.80
2023-01-13T15:32:57.893Z,7.64
2023-01-13T15:35:29.147Z,7.65
2023-01-13T15:37:57.353Z,8.09
2023-01-13T15:40:26.367Z,7.59
2023-01-13T15:42:53.276Z,8.93
2023-01-13T15:45:22.889Z,8.95
2023-01-13T15:47:49.693Z,8.97
2023-01-13T15:50:18.559Z,7.82
2023-01-13T15:52:46.073Z,8.65
2023-01-13T15:55:12.892Z,7.68
2023-01-13T15:57:47.342Z,8.90
2023-01-13T16:00:16.594Z,8.35
2023-01-13T16:02:43.499Z,8.24
2023-01-13T16:05:11.036Z,8.33
2023-01-13T16:07:39.571Z,8.57
2023-01-13T16:10:17.232Z,8.41
2023-01-13T16:12:45.606Z,8.26
2023-01-13T16:15:16.353Z,8.75
2023-01-13T16:17:44.774Z,8.50
2023-01-13T16:20:16.013Z,8.76
2023-01-13T16:22:44.719Z,7.60
2023-01-13T16:25:17.547Z,8.80
2023-01-13T16:27:44.907Z,8.59
2023-01-13T16:30:21.995Z,8.15
2023-01-13T16:32:48.879Z,8.09
2023-01-13T16:35:15.717Z,8.17
2023-01-13T16:37:44.498Z,8.38
2023-01-13T16:40:21.537Z,8.90
2023-01-13T16:42:48.553Z,7.96
2023-01-13T16:45:15.379Z,8.95
2023-01-13T16:47:44.507Z,8.79
2023-01-13T16:50:23.201Z,8.98
2023-01-13T16:52:51.520Z,7.91
2023-01-13T16:55:18.353Z,8.33
2023-01-13T16:57:45.305Z,8.69
2023-01-13T17:00:13.604Z,7.96
2023-01-13T17:02:40.674Z,8.41
2023-01-13T17:05:11.870Z,8.15
2023-01-13T17:07:39.721Z,8.30
2023-01-13T17:10:08.744Z,8.91
2023-01-13T17:12:35.523Z,8.55
2023-01-13T17:15:02.306Z,8.70
2023-01-13T17:17:31.244Z,8.64
2023-01-13T17:19:57.967Z,8.88
2023-01-13T17:22:24.747Z,8.07
2023-01-13T17:24:52.127Z,7.87
2023-01-13T17:27:20.383Z,8.86
2023-01-13T17:29:47.171Z,8.60
2023-01-13T17:32:17.525Z,8.68
2023-01-13T17:34:46.115Z,7.86
2023-01-13T17:37:15.536Z,7.75
2023-01-13T17:39:45.219Z,7.76
2023-01-13T17:42:12.594Z,8.61
2023-01-13T17:44:41.140Z,8.39
2023-01-13T17:47:08.504Z,8.63
2023-01-13T17:49:35.420Z,8.38
2023-01-13T17:52:02.517Z,8.91
2023-01-13T17:54:29.376Z,8.07
2023-01-13T17:56:56.503Z,8.55
2023-01-13T17:59:23.436Z,8.53
2023-01-13T18:01:52.601Z,7.75
2023-01-13T18:04:21.892Z,8.96
2023-01-13T18:06:48.936Z,8.17
2023-01-13T18:09:16.367Z,8.40
2023-01-13T18:11:43.599Z,8.98
2023-01-13T18:14:10.901Z,9.02
2023-01-13T18:16:38.261Z,9.04
2023-01-13T18:19:06.730Z,8.92
2023-01-13T18:21:33.757Z,8.53
2023-01-13T18:24:00.513Z,7.71
2023-01-13T18:26:28.344Z,8.01
2023-01-13T18:28:55.410Z,9.06
2023-01-13T18:31:22.257Z,9.04
2023-01-13T18:33:49.170Z,8.04
2023-01-13T18:36:17.500Z,9.05
2023-01-13T18:38:44.400Z,8.99
2023-01-13T18:41:13.020Z,8.88
2023-01-13T18:43:40.122Z,8.99
2023-01-13T18:46:09.388Z,9.00
2023-01-13T18:48:36.182Z,8.96
2023-01-13T18:51:03.074Z,8.92
2023-01-13T18:53:31.277Z,8.91
2023-01-13T18:55:58.060Z,8.84
2023-01-13T18:58:25.455Z,8.35
2023-01-13T19:01:00.795Z,8.19
2023-01-13T19:03:30.225Z,8.72
2023-01-13T19:06:02.262Z,8.51
2023-01-13T19:08:29.154Z,7.95
2023-01-13T19:10:57.226Z,7.63
2023-01-13T19:13:26.280Z,7.85
2023-01-13T19:15:53.271Z,7.55
2023-01-13T19:18:20.473Z,7.47
2023-01-13T19:20:47.167Z,8.25
2023-01-13T19:23:13.955Z,8.48
2023-01-13T19:25:40.690Z,7.34
2023-01-13T19:28:08.853Z,8.14
2023-01-13T19:30:35.767Z,7.94
2023-01-13T19:33:02.660Z,8.61
2023-01-13T19:35:29.421Z,7.94
2023-01-13T19:37:56.185Z,8.63
2023-01-13T19:40:22.832Z,8.62
2023-01-13T19:42:49.659Z,7.90
2023-01-13T19:45:19.278Z,8.62
2023-01-13T19:47:46.103Z,8.66
2023-01-13T19:50:14.034Z,7.87
2023-01-13T19:52:41.395Z,8.59
2023-01-13T19:55:08.578Z,8.55
2023-01-13T19:57:35.452Z,8.52
2023-01-13T20:00:02.309Z,7.72
2023-01-13T20:02:30.582Z,7.01
2023-01-13T20:05:00.589Z,8.16
2023-01-13T20:07:30.099Z,8.07
2023-01-13T20:09:57.130Z,8.02
2023-01-13T20:12:24.627Z,7.81
2023-01-13T20:14:51.760Z,7.95
2023-01-13T20:17:20.276Z,7.27
2023-01-13T20:19:49.935Z,7.22
2023-01-13T20:22:16.733Z,7.73
2023-01-13T20:24:43.505Z,6.83
2023-01-13T20:27:10.528Z,7.74
2023-01-13T20:29:38.144Z,6.79
2023-01-13T20:32:05.461Z,6.83
2023-01-13T20:34:32.251Z,7.16
2023-01-13T20:37:01.038Z,7.57
2023-01-13T20:39:27.900Z,7.51
2023-01-13T20:41:54.991Z,7.25
2023-01-13T20:44:21.708Z,7.11
2023-01-13T20:46:48.486Z,7.38
2023-01-13T20:49:16.015Z,7.35
2023-01-13T20:51:42.985Z,7.05
2023-01-13T20:54:11.169Z,6.24
2023-01-13T20:56:38.060Z,6.45
2023-01-13T20:59:04.928Z,6.48
2023-01-13T21:01:32.201Z,6.87
2023-01-13T21:04:00.138Z,7.19
2023-01-13T21:06:27.752Z,6.61
2023-01-13T21:08:54.806Z,6.13
2023-01-13T21:11:25.007Z,7.18
2023-01-13T21:13:51.822Z,6.78
2023-01-13T21:16:18.833Z,7.11
2023-01-13T21:18:45.534Z,7.04
2023-01-13T21:21:12.585Z,7.17
2023-01-13T21:23:39.769Z,6.92
2023-01-13T21:26:07.382Z,7.19
2023-01-13T21:28:35.931Z,6.80
2023-01-13T21:31:03.777Z,7.07
2023-01-13T21:33:30.962Z,7.10
2023-01-13T21:35:57.740Z,7.27
2023-01-13T21:38:24.682Z,6.87
2023-01-13T21:41:00.764Z,7.34
2023-01-13T21:43:28.015Z,7.12
2023-01-13T21:45:56.152Z,7.25
2023-01-13T21:48:25.921Z,7.01
2023-01-13T21:50:52.658Z,6.32
2023-01-13T21:53:19.605Z,6.10
2023-01-13T21:55:50.635Z,6.07
2023-01-13T21:58:17.357Z,6.61
2023-01-13T22:00:45.284Z,6.93
2023-01-13T22:03:14.026Z,6.20
2023-01-13T22:06:09.913Z,6.79
2023-01-13T22:08:37.154Z,6.41
2023-01-13T22:11:04.500Z,6.17
2023-01-13T22:13:31.155Z,6.90
2023-01-13T22:16:02.672Z,6.81
2023-01-13T22:18:30.849Z,7.05
2023-01-13T22:21:00.334Z,7.08
2023-01-13T22:23:27.253Z,6.47
2023-01-13T22:26:00.738Z,7.08
2023-01-13T22:28:27.564Z,5.89
2023-01-13T22:30:54.262Z,7.01
2023-01-13T22:33:21.010Z,7.15
2023-01-13T22:35:55.785Z,6.57
2023-01-13T22:38:22.379Z,7.09
2023-01-13T22:40:56.009Z,6.92
2023-01-13T22:43:23.104Z,7.14
2023-01-13T22:45:56.533Z,6.68
2023-01-13T22:48:23.375Z,7.16
2023-01-13T22:50:50.330Z,6.99
2023-01-13T22:53:19.476Z,6.90
2023-01-13T22:55:53.924Z,7.63
2023-01-13T22:58:20.901Z,7.64
2023-01-13T23:00:47.843Z,7.46
2023-01-13T23:03:15.042Z,6.47
2023-01-13T23:05:43.449Z,7.63
2023-01-13T23:08:11.808Z,7.66
2023-01-13T23:10:41.157Z,7.76
2023-01-13T23:13:08.859Z,7.74
2023-01-13T23:15:36.031Z,7.07
2023-01-13T23:18:02.995Z,7.82
2023-01-13T23:20:30.302Z,7.72
2023-01-13T23:22:57.074Z,7.83
2023-01-13T23:25:23.788Z,7.86
2023-01-13T23:27:52.125Z,7.87
2023-01-13T23:30:19.074Z,7.23
2023-01-13T23:32:45.803Z,7.45
2023-01-13T23:35:12.502Z,7.43
2023-01-13T23:37:39.488Z,7.67
2023-01-13T23:40:10.085Z,7.88
2023-01-13T23:42:37.292Z,6.95
2023-01-13T23:45:06.692Z,7.91
2023-01-13T23:47:33.608Z,7.91
2023-01-13T23:50:00.405Z,6.84
2023-01-13T23:52:27.091Z,7.81
2023-01-13T23:54:53.780Z,7.96
2023-01-13T23:57:20.645Z,6.97
2023-01-13T23:59:47.354Z,7.49
